Accueil
METAR-TAF:

METAR-TAF

Aéroports :

Locarno, Suisse

latitude: 46-09-55N, longitude: 8-52-40E, altitude: 198 m

Observation

Le bulletin a été fait il y a 36 minutes, à 23:50 UTC
Vent calme
Température 22°C
Humidité 83%
Pression 1019 hPa
Visibilité 10 km ou plus
Nuages épars à une hauteur de 6800 ft
Nuages épars à une hauteur de 8000 ft

METAR: LSZL 202350Z AUTO 00000KT 9999NDV SCT068 SCT080 22/19 Q1019 RMK

Heure: 02:26 (00:26 UTC)

Prévision

Le bulletin a été fait il y a 7 heures et 1 minutes, à 17:25 UTC
Prévision valable du 20 à 18 UTC au 21 à 03 UTC
Vent 5 kt de ouest
Visibilité 10 km ou plus
Quelques nuages à une hauteur de 6000 ft
Probabilité 40% :
Temporairement
du 20 à 18 UTC au 20 à 21 UTC
Visibilité: 4500 m
Nuages épars à une hauteur de 5000 ft, Cumulonimbus.
orage, pluie

TAF: LSZL 201725Z 2018/2103 27005KT 9999 FEW060 PROB40 TEMPO 2018/2021 4500 TSRA SCT050CB

Observations et prévisions météorologiques de plus de 4000 aéroports (messages METAR et TAF).

Les stations disponibles sont représentées par des disques jaunes et rouges sur la carte.

Passer la souris dessus pour voir le nom de la station.

Cliquer dessus pour voir les observations et prévisions météorologiques.

Pour changer de carte: cliquez sur les boutons verts avec une croix noire pour zoomer, sur le bouton vert avec un tiret pour effectuer un zoom arrière, ou sur les flèches vertes pour les cartes adjacentes.


METAR-TAF: